createdAt,value
2023-03-13T00:00:06.442Z,37.52
2023-03-13T00:04:08.155Z,38.21
2023-03-13T00:08:09.554Z,37.96
2023-03-13T00:12:10.838Z,38.01
2023-03-13T00:16:16.631Z,38.48
2023-03-13T00:20:18.131Z,38.28
2023-03-13T00:24:19.512Z,37.93
2023-03-13T00:28:20.804Z,37.89
2023-03-13T00:32:22.207Z,37.82
2023-03-13T00:36:41.882Z,38.95
2023-03-13T00:40:43.133Z,38.96
2023-03-13T00:44:44.499Z,38.89
2023-03-13T00:48:46.197Z,38.95
2023-03-13T00:52:47.493Z,39.58
2023-03-13T00:56:48.844Z,39.88
2023-03-13T01:00:51.006Z,40.02
2023-03-13T01:04:53.901Z,40.42
2023-03-13T01:08:56.099Z,40.27
2023-03-13T01:12:57.466Z,40.18
2023-03-13T01:16:58.858Z,40.32
2023-03-13T01:21:00.240Z,39.84
2023-03-13T01:25:01.653Z,39.37
2023-03-13T01:29:03.373Z,39.96
2023-03-13T01:33:04.797Z,40.39
2023-03-13T01:37:06.201Z,39.91
2023-03-13T01:41:11.069Z,40.25
2023-03-13T01:45:49.700Z,39.89
2023-03-13T01:49:53.157Z,39.60
2023-03-13T01:54:01.550Z,39.96
2023-03-13T01:58:03.505Z,39.87
2023-03-13T02:02:06.288Z,39.94
2023-03-13T02:06:08.896Z,39.80
2023-03-13T02:10:11.481Z,40.00
2023-03-13T02:14:13.543Z,40.57
2023-03-13T02:18:16.885Z,41.70
2023-03-13T02:22:44.721Z,41.18
2023-03-13T02:26:46.170Z,41.38
2023-03-13T02:30:50.797Z,41.22
2023-03-13T02:34:56.276Z,42.75
2023-03-13T02:39:04.496Z,44.55
2023-03-13T02:43:11.051Z,43.57
2023-03-13T02:47:17.075Z,45.05
2023-03-13T02:51:29.874Z,44.92
2023-03-13T02:55:36.771Z,44.50
2023-03-13T02:59:38.131Z,44.86
2023-03-13T03:03:39.490Z,45.50
2023-03-13T03:07:40.876Z,44.15
2023-03-13T03:11:42.219Z,44.01
2023-03-13T03:15:43.684Z,43.73
2023-03-13T03:19:45.075Z,44.19
2023-03-13T03:27:48.678Z,44.20
2023-03-13T03:31:50.069Z,43.67
2023-03-13T03:35:51.487Z,43.97
2023-03-13T03:39:52.859Z,43.75
2023-03-13T03:43:54.207Z,43.30
2023-03-13T03:47:55.715Z,42.95
2023-03-13T03:51:57.045Z,43.46
2023-03-13T03:55:59.329Z,43.33
2023-03-13T04:00:00.665Z,43.46
2023-03-13T04:04:01.967Z,42.90
2023-03-13T04:08:03.407Z,43.42
2023-03-13T04:12:05.162Z,42.99
2023-03-13T04:16:10.123Z,42.53
2023-03-13T04:20:13.549Z,43.04
2023-03-13T04:24:14.939Z,43.18
2023-03-13T04:28:16.245Z,42.63
2023-03-13T04:32:17.555Z,41.90
2023-03-13T04:36:18.924Z,43.35
2023-03-13T04:40:20.268Z,43.12
2023-03-13T04:44:23.016Z,43.26
2023-03-13T04:48:24.325Z,42.57
2023-03-13T04:52:25.713Z,43.20
2023-03-13T04:56:42.360Z,42.88
2023-03-13T05:00:44.906Z,43.40
2023-03-13T05:04:46.273Z,42.00
2023-03-13T05:08:47.651Z,42.95
2023-03-13T05:12:48.992Z,42.43
2023-03-13T05:16:50.384Z,41.94
2023-03-13T05:20:51.744Z,42.30
2023-03-13T05:24:53.151Z,42.07
2023-03-13T05:28:54.441Z,42.16
2023-03-13T05:32:55.820Z,42.43
2023-03-13T05:36:57.238Z,42.76
2023-03-13T05:40:58.627Z,42.37
2023-03-13T05:44:59.943Z,41.75
2023-03-13T05:49:01.195Z,41.86
2023-03-13T05:53:02.505Z,41.79
2023-03-13T05:57:04.010Z,41.95
2023-03-13T06:01:09.820Z,42.29
2023-03-13T06:05:11.381Z,42.21
2023-03-13T06:09:12.799Z,41.96
2023-03-13T06:13:20.077Z,40.92
2023-03-13T06:17:21.666Z,41.77
2023-03-13T06:21:22.982Z,41.33
2023-03-13T06:25:25.397Z,42.54
2023-03-13T06:29:26.987Z,41.40
2023-03-13T06:33:28.682Z,41.55
2023-03-13T06:37:30.356Z,41.54
2023-03-13T06:41:32.999Z,42.13
2023-03-13T06:45:36.351Z,41.07
2023-03-13T06:49:37.689Z,41.49
2023-03-13T06:53:39.072Z,41.29
2023-03-13T06:57:40.923Z,40.95
2023-03-13T07:01:42.273Z,40.63
2023-03-13T07:05:43.598Z,40.48
2023-03-13T07:09:44.990Z,40.51
2023-03-13T07:13:46.382Z,40.53
2023-03-13T07:17:47.771Z,40.14
2023-03-13T07:21:49.639Z,40.11
2023-03-13T07:25:54.711Z,39.97
2023-03-13T07:29:56.070Z,40.08
2023-03-13T07:33:57.371Z,40.13
2023-03-13T07:37:58.745Z,39.62
2023-03-13T07:42:00.097Z,39.75
2023-03-13T07:46:06.866Z,38.58
2023-03-13T07:50:08.992Z,37.41
2023-03-13T07:54:10.476Z,37.55
2023-03-13T07:58:11.792Z,38.83
2023-03-13T08:02:16.981Z,36.66
2023-03-13T08:06:20.883Z,36.73
2023-03-13T08:10:22.195Z,37.02
2023-03-13T08:14:23.549Z,36.65
2023-03-13T08:18:24.861Z,37.04
2023-03-13T08:22:26.285Z,36.32
2023-03-13T08:26:29.629Z,36.61
2023-03-13T08:30:30.984Z,36.91
2023-03-13T08:34:35.034Z,37.27
2023-03-13T08:38:36.405Z,38.23
2023-03-13T08:42:38.880Z,37.75
2023-03-13T08:46:41.132Z,38.77
2023-03-13T08:50:42.454Z,38.40
2023-03-13T08:54:44.313Z,39.25
2023-03-13T08:58:51.463Z,38.52
2023-03-13T09:02:52.785Z,38.04
2023-03-13T09:06:54.232Z,38.97
2023-03-13T09:11:04.236Z,38.14
2023-03-13T09:15:06.235Z,39.12
2023-03-13T09:19:07.526Z,38.95
2023-03-13T09:23:08.880Z,38.77
2023-03-13T09:27:10.340Z,38.42
2023-03-13T09:31:11.683Z,38.68
2023-03-13T09:35:13.065Z,38.42
2023-03-13T09:39:14.356Z,38.95
2023-03-13T09:43:43.115Z,37.57
2023-03-13T09:47:50.529Z,38.31
2023-03-13T09:52:00.642Z,37.59
2023-03-13T09:56:05.172Z,38.57
2023-03-13T10:00:16.554Z,37.87
2023-03-13T10:04:29.128Z,38.05
2023-03-13T10:08:32.768Z,37.78
2023-03-13T10:12:43.809Z,37.86
2023-03-13T10:17:20.531Z,36.92
2023-03-13T10:21:25.723Z,37.14
2023-03-13T10:25:40.653Z,36.57
2023-03-13T10:29:41.973Z,36.16
2023-03-13T10:33:43.701Z,33.79
2023-03-13T10:37:45.013Z,32.90
2023-03-13T10:41:48.056Z,31.97
2023-03-13T10:45:49.355Z,33.21
2023-03-13T10:49:55.494Z,32.62
2023-03-13T10:53:56.804Z,32.39
2023-03-13T10:58:00.864Z,32.31
2023-03-13T11:02:02.855Z,28.86
2023-03-13T11:06:04.245Z,28.83
2023-03-13T11:10:19.101Z,30.83
2023-03-13T11:14:25.931Z,31.59
2023-03-13T11:18:39.702Z,29.93
2023-03-13T11:23:18.981Z,29.01
2023-03-13T11:27:43.161Z,29.06
2023-03-13T11:31:51.183Z,30.41
2023-03-13T11:36:03.122Z,28.72
2023-03-13T11:40:22.437Z,28.81
2023-03-13T11:44:38.414Z,31.56
2023-03-13T11:49:18.248Z,30.29
2023-03-13T11:54:02.528Z,27.02
2023-03-13T11:58:30.934Z,29.60
2023-03-13T12:02:41.247Z,29.74
2023-03-13T12:06:52.065Z,30.71
2023-03-13T12:11:09.459Z,30.86
2023-03-13T12:15:24.588Z,32.08
2023-03-13T12:20:07.657Z,31.42
2023-03-13T12:24:48.996Z,30.46
2023-03-13T12:29:02.549Z,31.04
2023-03-13T12:33:17.506Z,30.61
2023-03-13T12:37:30.850Z,31.24
2023-03-13T12:41:43.193Z,31.11
2023-03-13T12:45:56.748Z,32.51
2023-03-13T12:50:07.383Z,30.94
2023-03-13T12:54:37.603Z,30.00
2023-03-13T12:59:04.042Z,30.94
2023-03-13T13:03:31.762Z,30.94
2023-03-13T13:07:36.950Z,31.59
2023-03-13T13:11:38.363Z,31.95
2023-03-13T13:15:47.198Z,30.88
2023-03-13T13:19:48.664Z,32.75
2023-03-13T13:23:53.901Z,31.59
2023-03-13T13:27:56.131Z,32.09
2023-03-13T13:32:00.132Z,32.77
2023-03-13T13:36:10.510Z,33.87
2023-03-13T13:40:24.200Z,32.95
2023-03-13T13:44:28.955Z,32.59
2023-03-13T13:48:36.309Z,33.84
2023-03-13T13:52:39.070Z,33.87
2023-03-13T13:56:47.669Z,33.54
2023-03-13T14:00:51.871Z,34.53
2023-03-13T14:05:00.694Z,33.08
2023-03-13T14:09:21.078Z,33.90
2023-03-13T14:13:24.715Z,32.86
2023-03-13T14:17:26.043Z,34.01
2023-03-13T14:21:27.707Z,32.87
2023-03-13T14:25:45.265Z,33.53
2023-03-13T14:30:05.182Z,34.11
2023-03-13T14:34:12.521Z,32.83
2023-03-13T14:38:20.169Z,32.32
2023-03-13T14:42:22.321Z,32.58
2023-03-13T14:46:32.786Z,34.27
2023-03-13T14:50:35.334Z,33.56
2023-03-13T14:54:51.800Z,33.09
2023-03-13T14:58:53.297Z,33.72
2023-03-13T15:03:24.290Z,33.20
2023-03-13T15:07:35.222Z,33.08
2023-03-13T15:11:41.055Z,32.76
2023-03-13T15:15:42.564Z,33.65
2023-03-13T15:19:48.640Z,33.59
2023-03-13T15:23:56.291Z,32.68
2023-03-13T15:27:57.805Z,32.77
2023-03-13T15:32:04.000Z,33.62
2023-03-13T15:36:05.813Z,33.21
2023-03-13T15:40:14.251Z,32.27
2023-03-13T15:44:15.615Z,32.44
2023-03-13T15:48:24.693Z,32.09
2023-03-13T15:52:26.016Z,32.58
2023-03-13T15:56:33.861Z,32.25
2023-03-13T16:00:35.230Z,31.96
2023-03-13T16:04:37.672Z,31.50
2023-03-13T16:08:39.059Z,30.90
2023-03-13T16:12:40.381Z,32.01
2023-03-13T16:16:42.599Z,31.50
2023-03-13T16:20:44.036Z,32.36
2023-03-13T16:24:45.321Z,32.06
2023-03-13T16:28:47.281Z,31.73
2023-03-13T16:32:48.747Z,32.09
2023-03-13T16:36:50.097Z,31.72
2023-03-13T16:40:51.381Z,31.84
2023-03-13T16:44:52.725Z,31.69
2023-03-13T16:48:56.989Z,31.93
2023-03-13T16:52:58.665Z,32.03
2023-03-13T16:57:02.091Z,32.62
2023-03-13T17:01:05.854Z,32.32
2023-03-13T17:05:07.867Z,32.40
2023-03-13T17:09:16.339Z,32.63
2023-03-13T17:13:20.263Z,32.75
2023-03-13T17:17:22.966Z,32.66
2023-03-13T17:21:26.653Z,32.68
2023-03-13T17:25:28.012Z,32.52
2023-03-13T17:29:29.395Z,33.73
2023-03-13T17:33:30.700Z,32.09
2023-03-13T17:37:33.438Z,32.02
2023-03-13T17:41:36.144Z,31.99
2023-03-13T17:45:37.657Z,32.02
2023-03-13T17:49:38.973Z,32.02
2023-03-13T17:53:42.592Z,31.89
2023-03-13T17:57:44.067Z,32.11
2023-03-13T18:01:45.459Z,31.97
2023-03-13T18:05:46.877Z,32.69
2023-03-13T18:09:48.406Z,32.63
2023-03-13T18:13:50.611Z,32.54
2023-03-13T18:17:52.787Z,32.31
2023-03-13T18:21:55.379Z,33.01
2023-03-13T18:25:57.843Z,32.56
2023-03-13T18:29:59.273Z,33.24
2023-03-13T18:34:01.826Z,33.42
2023-03-13T18:38:03.323Z,33.33
2023-03-13T18:42:04.663Z,34.08
2023-03-13T18:46:11.672Z,32.58
2023-03-13T18:50:26.035Z,33.07
2023-03-13T18:54:27.421Z,33.49
2023-03-13T18:58:28.749Z,33.32
2023-03-13T19:02:30.269Z,33.34
2023-03-13T19:06:33.937Z,33.95
2023-03-13T19:10:37.368Z,32.94
2023-03-13T19:14:38.816Z,33.41
2023-03-13T19:18:40.252Z,34.76
2023-03-13T19:22:41.664Z,33.88
2023-03-13T19:26:51.977Z,33.39
2023-03-13T19:30:53.348Z,33.48
2023-03-13T19:34:54.741Z,33.89
2023-03-13T19:38:56.020Z,34.70
2023-03-13T19:42:57.449Z,34.81
2023-03-13T19:47:00.291Z,34.76
2023-03-13T19:51:01.626Z,34.99
2023-03-13T19:55:05.197Z,34.85
2023-03-13T19:59:14.193Z,36.31
2023-03-13T20:03:15.539Z,35.98
2023-03-13T20:07:16.880Z,35.97
2023-03-13T20:11:18.256Z,36.91
2023-03-13T20:15:19.615Z,37.29
2023-03-13T20:19:22.622Z,36.92
2023-03-13T20:23:24.511Z,37.44
2023-03-13T20:27:26.542Z,37.51
2023-03-13T20:31:30.386Z,37.01
2023-03-13T20:35:31.799Z,37.22
2023-03-13T20:39:34.682Z,36.38
2023-03-13T20:43:36.966Z,36.75
2023-03-13T20:47:38.294Z,36.66
2023-03-13T20:51:39.852Z,37.16
2023-03-13T20:55:41.680Z,36.86
2023-03-13T20:59:42.954Z,37.60
2023-03-13T21:03:44.294Z,37.41
2023-03-13T21:07:45.978Z,37.62
2023-03-13T21:11:47.270Z,37.91
2023-03-13T21:15:48.682Z,37.67
2023-03-13T21:19:50.094Z,38.04
2023-03-13T21:23:52.995Z,37.19
2023-03-13T21:27:54.315Z,38.13
2023-03-13T21:31:55.872Z,37.47
2023-03-13T21:35:57.775Z,38.40
2023-03-13T21:39:59.270Z,38.85
2023-03-13T21:44:01.954Z,38.94
2023-03-13T21:48:03.556Z,39.77
2023-03-13T21:52:04.902Z,39.00
2023-03-13T21:56:06.795Z,38.70
2023-03-13T22:00:09.003Z,38.31
2023-03-13T22:04:11.600Z,38.17
2023-03-13T22:08:13.616Z,38.30
2023-03-13T22:12:15.038Z,38.20
2023-03-13T22:16:16.412Z,37.68
2023-03-13T22:20:17.867Z,37.50
2023-03-13T22:24:19.245Z,38.08
2023-03-13T22:28:20.989Z,37.44
2023-03-13T22:32:22.451Z,37.51
2023-03-13T22:36:23.904Z,37.79
2023-03-13T22:40:25.245Z,37.92
2023-03-13T22:44:26.646Z,37.43
2023-03-13T22:48:27.918Z,37.67
2023-03-13T22:52:30.814Z,37.77
2023-03-13T22:56:32.210Z,37.75
2023-03-13T23:00:33.610Z,37.57
2023-03-13T23:04:35.073Z,37.95
2023-03-13T23:08:36.387Z,38.30
2023-03-13T23:12:38.182Z,37.81
2023-03-13T23:16:39.514Z,37.54
2023-03-13T23:20:40.872Z,38.40
2023-03-13T23:24:42.133Z,37.68
2023-03-13T23:28:44.000Z,37.50
2023-03-13T23:32:47.024Z,37.40
2023-03-13T23:36:49.555Z,37.53
2023-03-13T23:40:52.800Z,37.39
2023-03-13T23:44:54.545Z,38.01
2023-03-13T23:48:57.224Z,38.50
2023-03-13T23:52:58.569Z,37.82
2023-03-13T23:56:59.868Z,37.61
